createdAt,value
2022-11-18T00:01:10.795Z,-5.26
2022-11-18T00:03:45.011Z,-5.24
2022-11-18T00:06:19.745Z,-5.26
2022-11-18T00:08:53.451Z,-5.36
2022-11-18T00:11:46.186Z,-5.41
2022-11-18T00:14:23.491Z,-5.43
2022-11-18T00:16:59.733Z,-5.51
2022-11-18T00:19:34.533Z,-5.55
2022-11-18T00:22:10.109Z,-5.52
2022-11-18T00:24:43.715Z,-5.55
2022-11-18T00:27:17.442Z,-5.55
2022-11-18T00:29:50.842Z,-5.55
2022-11-18T00:32:24.341Z,-5.52
2022-11-18T00:34:57.720Z,-5.51
2022-11-18T00:37:31.348Z,-5.51
2022-11-18T00:40:05.180Z,-5.51
2022-11-18T00:42:54.204Z,-5.53
2022-11-18T00:45:27.770Z,-5.55
2022-11-18T00:48:01.041Z,-5.60
2022-11-18T00:50:34.427Z,-5.58
2022-11-18T00:53:08.084Z,-5.57
2022-11-18T00:55:41.618Z,-5.61
2022-11-18T00:58:15.522Z,-5.60
2022-11-18T01:00:50.967Z,-5.54
2022-11-18T01:03:25.707Z,-5.53
2022-11-18T01:05:59.301Z,-5.58
2022-11-18T01:08:32.924Z,-5.62
2022-11-18T01:11:25.495Z,-5.64
2022-11-18T01:13:59.096Z,-5.61
2022-11-18T01:16:32.632Z,-5.64
2022-11-18T01:19:06.342Z,-5.64
2022-11-18T01:21:39.964Z,-5.58
2022-11-18T01:24:14.014Z,-5.59
2022-11-18T01:26:47.596Z,-5.62
2022-11-18T01:29:21.114Z,-5.64
2022-11-18T01:32:22.607Z,-5.62
2022-11-18T01:34:31.466Z,-5.61
2022-11-18T01:37:05.179Z,-5.61
2022-11-18T01:39:39.066Z,-5.59
2022-11-18T01:42:17.396Z,-5.52
2022-11-18T01:45:08.342Z,-5.52
2022-11-18T01:47:44.851Z,-5.58
2022-11-18T01:50:20.466Z,-5.65
2022-11-18T01:52:56.675Z,-5.65
2022-11-18T01:55:33.235Z,-5.65
2022-11-18T01:58:10.342Z,-5.61
2022-11-18T02:00:44.355Z,-5.61
2022-11-18T02:03:18.651Z,-5.66
2022-11-18T02:05:53.599Z,-5.59
2022-11-18T02:08:27.629Z,-5.58
2022-11-18T02:11:01.250Z,-5.53
2022-11-18T02:13:34.935Z,-5.52
2022-11-18T02:16:13.721Z,-5.55
2022-11-18T02:18:49.955Z,-5.51
2022-11-18T02:21:27.638Z,-5.49
2022-11-18T02:24:20.991Z,-5.54
2022-11-18T02:27:36.699Z,-5.54
2022-11-18T02:30:12.268Z,-5.59
2022-11-18T02:32:48.615Z,-5.62
2022-11-18T02:35:25.617Z,-5.60
2022-11-18T02:38:02.562Z,-5.61
2022-11-18T02:40:38.670Z,-5.58
2022-11-18T02:43:15.736Z,-5.56
2022-11-18T02:45:51.944Z,-5.55
2022-11-18T02:48:29.240Z,-5.54
2022-11-18T02:51:05.665Z,-5.49
2022-11-18T02:53:43.842Z,-5.55
2022-11-18T02:56:19.475Z,-5.53
2022-11-18T02:58:53.576Z,-5.54
2022-11-18T03:01:30.049Z,-5.53
2022-11-18T03:04:04.176Z,-5.57
2022-11-18T03:06:40.037Z,-5.57
2022-11-18T03:09:16.986Z,-5.54
2022-11-18T03:11:53.800Z,-5.53
2022-11-18T03:14:32.076Z,-5.50
2022-11-18T03:17:08.120Z,-5.48
2022-11-18T03:19:55.325Z,-5.54
2022-11-18T03:22:31.848Z,-5.54
2022-11-18T03:25:08.164Z,-5.55
2022-11-18T03:27:45.783Z,-5.55
2022-11-18T03:30:22.208Z,-5.56
2022-11-18T03:33:00.503Z,-5.55
2022-11-18T03:35:35.855Z,-5.51
2022-11-18T03:38:12.111Z,-5.50
2022-11-18T03:40:48.696Z,-5.55
2022-11-18T03:43:25.373Z,-5.58
2022-11-18T03:46:01.943Z,-5.59
2022-11-18T03:48:38.826Z,-5.60
2022-11-18T03:51:15.118Z,-5.59
2022-11-18T03:53:51.979Z,-5.55
2022-11-18T03:56:28.619Z,-5.51
2022-11-18T03:59:05.249Z,-5.48
2022-11-18T04:04:22.126Z,-5.28
2022-11-18T04:06:58.322Z,-5.40
2022-11-18T04:09:34.477Z,-5.38
2022-11-18T04:12:11.498Z,-5.39
2022-11-18T04:14:49.142Z,-5.43
2022-11-18T04:17:24.816Z,-5.42
2022-11-18T04:19:58.516Z,-5.43
2022-11-18T04:22:31.871Z,-5.42
2022-11-18T04:25:05.571Z,-5.41
2022-11-18T04:27:41.643Z,-5.44
2022-11-18T04:30:17.379Z,-5.42
2022-11-18T04:32:50.908Z,-5.42
2022-11-18T04:35:24.363Z,-5.42
2022-11-18T04:37:57.694Z,-5.42
2022-11-18T04:40:31.189Z,-5.48
2022-11-18T04:43:04.687Z,-5.48
2022-11-18T04:45:38.026Z,-5.44
2022-11-18T04:48:11.583Z,-5.41
2022-11-18T04:50:44.884Z,-5.43
2022-11-18T04:53:18.543Z,-5.43
2022-11-18T04:55:52.121Z,-5.41
2022-11-18T04:58:25.669Z,-5.38
2022-11-18T05:00:59.092Z,-5.38
2022-11-18T05:03:32.674Z,-5.37
2022-11-18T05:06:06.315Z,-5.43
2022-11-18T05:08:39.962Z,-5.43
2022-11-18T05:11:30.726Z,-5.42
2022-11-18T05:14:04.421Z,-5.51
2022-11-18T05:16:38.220Z,-5.43
2022-11-18T05:19:11.903Z,-5.42
2022-11-18T05:21:45.389Z,-5.40
2022-11-18T05:24:19.590Z,-5.38
2022-11-18T05:26:53.480Z,-5.36
2022-11-18T05:29:27.373Z,-5.35
2022-11-18T05:32:01.002Z,-5.33
2022-11-18T05:34:34.501Z,-5.37
2022-11-18T05:37:08.102Z,-5.35
2022-11-18T05:39:41.574Z,-5.37
2022-11-18T05:42:33.152Z,-5.33
2022-11-18T05:45:07.769Z,-5.36
2022-11-18T05:48:00.785Z,-5.39
2022-11-18T05:50:36.342Z,-5.35
2022-11-18T05:53:09.723Z,-5.28
2022-11-18T05:55:47.109Z,-5.22
2022-11-18T05:58:20.691Z,-5.16
2022-11-18T06:00:56.941Z,-5.16
2022-11-18T06:03:33.375Z,-5.15
2022-11-18T06:06:09.615Z,-5.15
2022-11-18T06:08:46.103Z,-5.16
2022-11-18T06:11:21.611Z,-5.11
2022-11-18T06:13:57.881Z,-5.06
2022-11-18T06:16:39.490Z,-5.05
2022-11-18T06:19:09.525Z,-5.03
2022-11-18T06:21:42.964Z,-5.00
2022-11-18T06:24:17.887Z,-5.05
2022-11-18T06:26:51.758Z,-5.09
2022-11-18T06:29:27.916Z,-5.06
2022-11-18T06:32:00.157Z,-4.98
2022-11-18T06:34:38.177Z,-4.96
2022-11-18T06:37:16.446Z,-4.98
2022-11-18T06:39:49.824Z,-4.94
2022-11-18T06:42:40.699Z,-4.93
2022-11-18T06:45:15.005Z,-4.99
2022-11-18T06:47:49.133Z,-4.93
2022-11-18T06:50:22.547Z,-4.89
2022-11-18T06:52:56.069Z,-4.88
2022-11-18T06:55:29.621Z,-4.83
2022-11-18T06:58:03.295Z,-4.70
2022-11-18T07:00:37.011Z,-4.63
2022-11-18T07:03:10.664Z,-4.62
2022-11-18T07:05:44.255Z,-4.61
2022-11-18T07:08:17.900Z,-4.62
2022-11-18T07:10:56.006Z,-4.66
2022-11-18T07:13:30.704Z,-4.60
2022-11-18T07:16:10.092Z,-4.49
2022-11-18T07:18:45.087Z,-4.41
2022-11-18T07:21:20.643Z,-4.38
2022-11-18T07:23:54.549Z,-4.33
2022-11-18T07:26:28.251Z,-4.27
2022-11-18T07:29:01.941Z,-4.26
2022-11-18T07:31:37.607Z,-4.29
2022-11-18T07:34:11.024Z,-4.25
2022-11-18T07:36:44.390Z,-4.22
2022-11-18T07:39:18.775Z,-4.20
2022-11-18T07:41:52.368Z,-4.24
2022-11-18T07:44:26.539Z,-4.29
2022-11-18T07:46:59.962Z,-4.36
2022-11-18T07:49:33.287Z,-4.38
2022-11-18T07:52:07.145Z,-4.35
2022-11-18T07:54:40.649Z,-4.33
2022-11-18T07:57:14.176Z,-4.25
2022-11-18T07:59:47.330Z,-4.24
2022-11-18T08:02:21.154Z,-4.16
2022-11-18T08:04:54.562Z,-4.02
2022-11-18T08:07:28.143Z,-3.93
2022-11-18T08:10:03.508Z,-3.89
2022-11-18T08:12:36.891Z,-3.81
2022-11-18T08:15:12.312Z,-3.76
2022-11-18T08:17:45.813Z,-3.74
2022-11-18T08:20:19.878Z,-3.77
2022-11-18T08:22:53.368Z,-3.76
2022-11-18T08:25:26.836Z,-3.76
2022-11-18T08:28:00.382Z,-3.69
2022-11-18T08:30:35.452Z,-3.65
2022-11-18T08:33:08.730Z,-3.55
2022-11-18T08:35:42.203Z,-3.51
2022-11-18T08:38:15.749Z,-3.53
2022-11-18T08:40:50.219Z,-3.55
2022-11-18T08:43:23.707Z,-3.57
2022-11-18T08:45:56.979Z,-3.48
2022-11-18T08:48:30.206Z,-3.43
2022-11-18T08:51:04.325Z,-3.44
2022-11-18T08:53:37.605Z,-3.44
2022-11-18T08:56:15.074Z,-3.46
2022-11-18T08:58:48.655Z,-3.45
2022-11-18T09:01:22.536Z,-3.49
2022-11-18T09:03:57.981Z,-3.53
2022-11-18T09:06:31.516Z,-3.61
2022-11-18T09:09:06.649Z,-3.62
2022-11-18T09:11:42.058Z,-3.62
2022-11-18T09:16:50.968Z,-3.58
2022-11-18T09:19:46.163Z,-3.62
2022-11-18T09:21:59.803Z,-3.58
2022-11-18T09:24:33.791Z,-3.59
2022-11-18T09:27:12.243Z,-3.60
2022-11-18T09:29:42.684Z,-3.61
2022-11-18T09:32:16.646Z,-3.67
2022-11-18T09:34:50.230Z,-3.66
2022-11-18T09:37:23.543Z,-3.63
2022-11-18T09:39:56.561Z,-3.62
2022-11-18T09:42:43.479Z,-3.62
2022-11-18T09:45:24.624Z,-3.57
2022-11-18T09:48:01.644Z,-3.59
2022-11-18T09:50:49.008Z,-3.49
2022-11-18T09:53:15.204Z,-3.41
2022-11-18T09:55:49.506Z,-3.40
2022-11-18T09:58:25.896Z,-3.43
2022-11-18T10:00:59.224Z,-3.41
2022-11-18T10:03:34.573Z,-3.33
2022-11-18T10:06:20.546Z,-3.24
2022-11-18T10:08:58.644Z,-3.31
2022-11-18T10:11:40.244Z,-3.35
2022-11-18T10:14:19.207Z,-3.38
2022-11-18T10:16:58.110Z,-3.34
2022-11-18T10:19:31.304Z,-3.22
2022-11-18T10:22:24.066Z,-3.16
2022-11-18T10:24:55.165Z,-3.27
2022-11-18T10:27:31.276Z,-3.38
2022-11-18T10:30:06.312Z,-3.34
2022-11-18T10:32:55.311Z,-3.30
2022-11-18T10:35:32.213Z,-3.24
2022-11-18T10:38:13.690Z,-3.15
2022-11-18T10:40:50.255Z,-3.05
2022-11-18T10:43:50.579Z,-3.04
2022-11-18T10:46:29.208Z,-3.09
2022-11-18T10:49:18.697Z,-3.18
2022-11-18T10:52:08.831Z,-3.22
2022-11-18T10:54:43.074Z,-3.35
2022-11-18T10:57:22.106Z,-3.44
2022-11-18T10:59:58.224Z,-3.44
2022-11-18T11:02:34.066Z,-3.51
2022-11-18T11:05:18.915Z,-3.47
2022-11-18T11:08:34.406Z,-3.46
2022-11-18T11:10:38.957Z,-3.48
2022-11-18T11:13:15.606Z,-3.56
2022-11-18T11:15:51.948Z,-3.72
2022-11-18T11:18:46.168Z,-3.82
2022-11-18T11:21:21.002Z,-3.84
2022-11-18T11:23:54.511Z,-3.87
2022-11-18T11:29:13.051Z,-3.84
2022-11-18T11:31:50.375Z,-3.80
2022-11-18T11:34:27.353Z,-3.79
2022-11-18T11:37:03.812Z,-3.79
2022-11-18T11:39:50.187Z,-3.76
2022-11-18T11:42:31.944Z,-3.74
2022-11-18T11:45:19.619Z,-3.76
2022-11-18T11:48:10.872Z,-3.78
2022-11-18T11:51:03.365Z,-3.75
2022-11-18T11:53:50.620Z,-3.68
2022-11-18T11:56:27.446Z,-3.63
2022-11-18T11:59:20.767Z,-3.66
2022-11-18T12:02:01.039Z,-3.68
2022-11-18T12:04:41.586Z,-3.67
2022-11-18T12:07:20.463Z,-3.64
2022-11-18T12:10:09.114Z,-3.56
2022-11-18T12:12:47.344Z,-3.53
2022-11-18T12:15:29.019Z,-3.46
2022-11-18T12:18:06.106Z,-3.47
2022-11-18T12:20:45.312Z,-3.49
2022-11-18T12:23:21.288Z,-3.54
2022-11-18T12:26:01.081Z,-3.62
2022-11-18T12:28:37.734Z,-3.65
2022-11-18T12:34:33.137Z,-3.49
2022-11-18T12:40:52.809Z,-3.56
2022-11-18T12:44:02.244Z,-3.69
2022-11-18T12:46:54.461Z,-3.67
2022-11-18T12:50:13.411Z,-3.82
2022-11-18T12:52:54.662Z,-3.95
2022-11-18T12:55:36.914Z,-4.05
2022-11-18T12:58:25.435Z,-4.06
2022-11-18T13:01:10.205Z,-4.03
2022-11-18T13:03:43.674Z,-4.03
2022-11-18T13:06:28.076Z,-4.10
2022-11-18T13:09:04.299Z,-4.13
2022-11-18T13:11:47.562Z,-4.19
2022-11-18T13:14:42.051Z,-4.18
2022-11-18T13:17:48.133Z,-4.15
2022-11-18T13:20:26.980Z,-4.08
2022-11-18T13:23:20.106Z,-4.12
2022-11-18T13:25:54.186Z,-4.17
2022-11-18T13:28:31.527Z,-4.28
2022-11-18T13:31:08.057Z,-4.24
2022-11-18T13:33:42.561Z,-4.18
2022-11-18T13:36:26.731Z,-4.15
2022-11-18T13:39:01.940Z,-4.07
2022-11-18T13:41:36.693Z,-4.09
2022-11-18T13:44:20.933Z,-4.12
2022-11-18T13:46:58.303Z,-4.10
2022-11-18T13:49:40.179Z,-4.07
2022-11-18T13:52:18.368Z,-4.10
2022-11-18T13:54:57.362Z,-4.19
2022-11-18T13:57:31.748Z,-4.16
2022-11-18T14:00:08.531Z,-4.13
2022-11-18T14:02:45.311Z,-4.11
2022-11-18T14:05:23.604Z,-4.09
2022-11-18T14:08:06.780Z,-4.11
2022-11-18T14:10:45.705Z,-4.12
2022-11-18T14:13:24.213Z,-4.12
2022-11-18T14:15:59.688Z,-4.09
2022-11-18T14:18:35.733Z,-4.10
2022-11-18T14:21:10.830Z,-4.14
2022-11-18T14:23:45.923Z,-4.12
2022-11-18T14:26:29.026Z,-4.11
2022-11-18T14:29:06.488Z,-4.10
2022-11-18T14:31:39.702Z,-4.19
2022-11-18T14:34:22.428Z,-4.22
2022-11-18T14:36:57.155Z,-4.23
2022-11-18T14:39:32.595Z,-4.23
2022-11-18T14:42:06.920Z,-4.23
2022-11-18T14:44:40.250Z,-4.27
2022-11-18T14:47:16.541Z,-4.26
2022-11-18T14:49:49.834Z,-4.35
2022-11-18T14:52:23.322Z,-4.37
2022-11-18T14:54:56.771Z,-4.35
2022-11-18T14:57:32.447Z,-4.36
2022-11-18T15:00:07.894Z,-4.33
2022-11-18T15:02:42.411Z,-4.35
2022-11-18T15:05:16.968Z,-4.38
2022-11-18T15:07:50.477Z,-4.45
2022-11-18T15:10:24.078Z,-4.46
2022-11-18T15:12:57.579Z,-4.46
2022-11-18T15:15:31.131Z,-4.46
2022-11-18T15:18:04.580Z,-4.46
2022-11-18T15:20:39.527Z,-4.48
2022-11-18T15:23:12.833Z,-4.50
2022-11-18T15:25:46.026Z,-4.45
2022-11-18T15:28:19.196Z,-4.46
2022-11-18T15:30:52.659Z,-4.48
2022-11-18T15:33:26.634Z,-4.47
2022-11-18T15:36:01.143Z,-4.50
2022-11-18T15:38:36.355Z,-4.51
2022-11-18T15:41:13.859Z,-4.51
2022-11-18T15:43:47.396Z,-4.56
2022-11-18T15:46:23.231Z,-4.65
2022-11-18T15:48:58.001Z,-4.70
2022-11-18T15:51:33.366Z,-4.71
2022-11-18T15:54:06.988Z,-4.68
2022-11-18T15:56:41.773Z,-4.72
2022-11-18T15:59:17.463Z,-4.69
2022-11-18T16:01:54.321Z,-4.69
2022-11-18T16:04:27.375Z,-4.72
2022-11-18T16:07:02.650Z,-4.68
2022-11-18T16:09:53.751Z,-4.67
2022-11-18T16:12:44.673Z,-4.65
2022-11-18T16:15:36.275Z,-4.70
2022-11-18T16:18:10.068Z,-4.70
2022-11-18T16:20:43.632Z,-4.70
2022-11-18T16:23:17.249Z,-4.69
2022-11-18T16:25:50.948Z,-4.68
2022-11-18T16:28:24.663Z,-4.69
2022-11-18T16:31:15.613Z,-4.72
2022-11-18T16:33:48.950Z,-4.60
2022-11-18T16:36:27.725Z,-4.61
2022-11-18T16:39:02.401Z,-4.54
2022-11-18T16:41:36.423Z,-4.52
2022-11-18T16:44:12.389Z,-4.51
2022-11-18T16:46:48.230Z,-4.51
2022-11-18T16:49:24.202Z,-4.53
2022-11-18T16:51:58.546Z,-4.53
2022-11-18T16:54:33.061Z,-4.49
2022-11-18T16:57:06.574Z,-4.42
2022-11-18T16:59:40.310Z,-4.34
2022-11-18T17:02:15.215Z,-4.28
2022-11-18T17:04:49.007Z,-4.22
2022-11-18T17:07:22.466Z,-4.17
2022-11-18T17:09:55.747Z,-4.13
2022-11-18T17:12:29.425Z,-4.13
2022-11-18T17:15:02.940Z,-4.11
2022-11-18T17:17:36.402Z,-4.15
2022-11-18T17:20:11.989Z,-4.16
2022-11-18T17:22:48.665Z,-4.14
2022-11-18T17:25:22.055Z,-4.10
2022-11-18T17:27:55.553Z,-4.06
2022-11-18T17:30:29.136Z,-4.07
2022-11-18T17:33:02.537Z,-4.07
2022-11-18T17:35:36.024Z,-4.11
2022-11-18T17:38:09.232Z,-4.13
2022-11-18T17:40:43.212Z,-4.14
2022-11-18T17:43:17.851Z,-4.12
2022-11-18T17:45:53.643Z,-4.21
2022-11-18T17:48:28.681Z,-4.22
2022-11-18T17:51:09.291Z,-4.20
2022-11-18T17:53:43.713Z,-4.17
2022-11-18T17:56:17.959Z,-4.17
2022-11-18T17:58:53.201Z,-4.16
2022-11-18T18:01:38.385Z,-4.15
2022-11-18T18:04:12.091Z,-4.11
2022-11-18T18:06:45.099Z,-4.07
2022-11-18T18:09:19.010Z,-4.06
2022-11-18T18:11:52.092Z,-4.03
2022-11-18T18:14:25.005Z,-4.01
2022-11-18T18:17:06.491Z,-4.02
2022-11-18T18:19:42.644Z,-4.03
2022-11-18T18:22:20.557Z,-4.04
2022-11-18T18:25:08.747Z,-4.06
2022-11-18T18:28:15.360Z,-4.05
2022-11-18T18:34:02.370Z,-3.91
2022-11-18T18:36:43.664Z,-4.05
2022-11-18T18:39:19.108Z,-4.09
2022-11-18T18:41:55.845Z,-4.09
2022-11-18T18:44:32.607Z,-4.07
2022-11-18T18:47:05.553Z,-4.06
2022-11-18T18:49:42.076Z,-4.07
2022-11-18T18:52:15.179Z,-4.07
2022-11-18T18:54:48.503Z,-4.05
2022-11-18T18:57:24.147Z,-4.07
2022-11-18T18:59:57.116Z,-4.06
2022-11-18T19:02:32.398Z,-4.04
2022-11-18T19:05:06.673Z,-4.06
2022-11-18T19:07:39.735Z,-4.09
2022-11-18T19:10:13.400Z,-4.12
2022-11-18T19:12:48.333Z,-4.11
2022-11-18T19:15:23.295Z,-4.10
2022-11-18T19:17:56.344Z,-4.15
2022-11-18T19:20:36.847Z,-4.15
2022-11-18T19:23:11.737Z,-4.37
2022-11-18T19:25:46.416Z,-4.12
2022-11-18T19:28:19.520Z,-4.11
2022-11-18T19:30:52.457Z,-4.09
2022-11-18T19:33:26.365Z,-4.06
2022-11-18T19:36:04.548Z,-4.07
2022-11-18T19:38:37.603Z,-4.08
2022-11-18T19:41:13.612Z,-4.16
2022-11-18T19:43:46.644Z,-4.20
2022-11-18T19:46:19.562Z,-4.18
2022-11-18T19:48:55.912Z,-4.18
2022-11-18T19:51:30.537Z,-4.16
2022-11-18T19:54:03.465Z,-4.20
2022-11-18T19:56:36.596Z,-4.23
2022-11-18T19:59:09.590Z,-4.32
2022-11-18T20:01:46.626Z,-4.37
2022-11-18T20:04:21.464Z,-4.38
2022-11-18T20:06:54.884Z,-4.38
2022-11-18T20:09:29.638Z,-4.37
2022-11-18T20:12:04.753Z,-4.33
2022-11-18T20:14:38.893Z,-4.31
2022-11-18T20:17:11.850Z,-4.33
2022-11-18T20:19:44.832Z,-4.33
2022-11-18T20:22:17.871Z,-4.33
2022-11-18T20:24:52.424Z,-4.32
2022-11-18T20:27:25.463Z,-4.31
2022-11-18T20:29:58.400Z,-4.30
2022-11-18T20:32:32.719Z,-4.34
2022-11-18T20:35:07.076Z,-4.32
2022-11-18T20:37:42.371Z,-4.29
2022-11-18T20:40:16.788Z,-4.30
2022-11-18T20:43:25.665Z,-4.32
2022-11-18T20:48:40.258Z,-4.34
2022-11-18T20:51:15.311Z,-4.50
2022-11-18T20:53:48.733Z,-4.55
2022-11-18T20:56:23.405Z,-4.59
2022-11-18T20:58:58.583Z,-4.65
2022-11-18T21:01:33.092Z,-4.73
2022-11-18T21:04:06.439Z,-4.79
2022-11-18T21:06:41.028Z,-4.86
2022-11-18T21:09:17.377Z,-4.96
2022-11-18T21:11:50.822Z,-5.08
2022-11-18T21:14:25.791Z,-5.18
2022-11-18T21:17:01.503Z,-5.29
2022-11-18T21:19:35.230Z,-5.37
2022-11-18T21:22:08.331Z,-5.45
2022-11-18T21:24:41.505Z,-5.54
2022-11-18T21:27:15.606Z,-5.60
2022-11-18T21:29:50.066Z,-5.67
2022-11-18T21:32:23.120Z,-5.73
2022-11-18T21:34:56.437Z,-5.79
2022-11-18T21:37:29.470Z,-5.86
2022-11-18T21:40:02.466Z,-5.92
2022-11-18T21:42:35.764Z,-5.98
2022-11-18T21:45:10.811Z,-6.02
2022-11-18T21:47:44.136Z,-6.08
2022-11-18T21:50:17.926Z,-6.14
2022-11-18T21:52:51.656Z,-6.18
2022-11-18T21:55:24.712Z,-6.22
2022-11-18T21:58:02.676Z,-6.23
2022-11-18T22:00:32.265Z,-6.30
2022-11-18T22:03:05.526Z,-6.26
2022-11-18T22:05:38.812Z,-6.25
2022-11-18T22:08:12.445Z,-6.26
2022-11-18T22:10:48.947Z,-6.27
2022-11-18T22:13:21.902Z,-6.27
2022-11-18T22:16:02.760Z,-6.29
2022-11-18T22:18:38.949Z,-6.34
2022-11-18T22:21:15.230Z,-6.35
2022-11-18T22:23:49.389Z,-6.35
2022-11-18T22:26:23.993Z,-6.34
2022-11-18T22:28:59.139Z,-6.34
2022-11-18T22:31:33.042Z,-6.33
2022-11-18T22:34:06.705Z,-6.33
2022-11-18T22:36:40.025Z,-6.33
2022-11-18T22:39:13.619Z,-6.29
2022-11-18T22:42:04.342Z,-6.26
2022-11-18T22:44:37.973Z,-6.24
2022-11-18T22:47:11.775Z,-6.22
2022-11-18T22:49:45.412Z,-6.20
2022-11-18T22:52:18.578Z,-6.15
2022-11-18T22:54:51.852Z,-6.11
2022-11-18T22:57:25.147Z,-6.08
2022-11-18T22:59:58.620Z,-6.03
2022-11-18T23:02:31.859Z,-6.03
2022-11-18T23:05:05.722Z,-6.04
2022-11-18T23:07:39.111Z,-6.05
2022-11-18T23:10:12.977Z,-6.05
2022-11-18T23:13:03.859Z,-6.02
2022-11-18T23:15:37.642Z,-6.00
2022-11-18T23:18:11.943Z,-6.01
2022-11-18T23:20:45.405Z,-5.99
2022-11-18T23:23:18.902Z,-5.98
2022-11-18T23:25:52.309Z,-5.95
2022-11-18T23:28:25.618Z,-5.94
2022-11-18T23:31:07.508Z,-5.94
2022-11-18T23:33:42.699Z,-5.93
2022-11-18T23:36:18.549Z,-5.91
2022-11-18T23:38:53.185Z,-5.89
2022-11-18T23:41:26.825Z,-5.86
2022-11-18T23:44:00.195Z,-5.84
2022-11-18T23:46:34.276Z,-5.83
2022-11-18T23:49:11.275Z,-5.81
2022-11-18T23:51:45.007Z,-5.81
2022-11-18T23:54:18.607Z,-5.83
2022-11-18T23:56:52.085Z,-5.84
2022-11-18T23:59:25.617Z,-5.84
